createdAt,value
2022-12-08T00:04:55.391Z,1.18
2022-12-08T00:15:55.611Z,1.47
2022-12-08T00:21:06.525Z,1.58
2022-12-08T00:26:19.243Z,1.65
2022-12-08T00:31:47.368Z,1.69
2022-12-08T00:37:19.855Z,1.70
2022-12-08T00:42:31.074Z,1.73
2022-12-08T00:47:40.150Z,1.74
2022-12-08T00:52:48.316Z,1.77
2022-12-08T00:57:56.150Z,1.80
2022-12-08T01:03:03.867Z,1.89
2022-12-08T01:08:18.946Z,1.94
2022-12-08T01:13:32.760Z,1.99
2022-12-08T01:18:45.525Z,2.01
2022-12-08T01:23:56.642Z,2.02
2022-12-08T01:29:03.952Z,2.05
2022-12-08T01:34:14.032Z,2.07
2022-12-08T01:39:22.389Z,2.07
2022-12-08T01:45:04.544Z,2.05
2022-12-08T01:50:17.537Z,2.06
2022-12-08T01:55:37.833Z,2.10
2022-12-08T02:00:47.880Z,2.14
2022-12-08T02:05:55.936Z,2.17
2022-12-08T02:11:06.980Z,2.21
2022-12-08T02:16:27.391Z,2.24
2022-12-08T02:21:42.790Z,2.28
2022-12-08T02:27:15.462Z,2.29
2022-12-08T02:32:44.562Z,2.32
2022-12-08T02:37:58.419Z,2.33
2022-12-08T02:43:11.520Z,2.32
2022-12-08T02:48:21.464Z,2.32
2022-12-08T02:53:31.817Z,2.27
2022-12-08T02:58:58.259Z,2.19
2022-12-08T03:04:16.836Z,2.12
2022-12-08T03:09:35.782Z,2.03
2022-12-08T03:14:47.021Z,1.92
2022-12-08T03:19:55.943Z,1.84
2022-12-08T03:25:03.833Z,1.71
2022-12-08T03:30:14.301Z,1.65
2022-12-08T03:35:30.423Z,1.61
2022-12-08T03:40:41.589Z,1.60
2022-12-08T03:45:49.327Z,1.61
2022-12-08T03:50:56.824Z,1.60
2022-12-08T03:56:04.616Z,1.59
2022-12-08T04:01:11.723Z,1.61
2022-12-08T04:06:19.989Z,1.66
2022-12-08T04:11:27.246Z,1.74
2022-12-08T04:16:34.959Z,1.81
2022-12-08T04:21:42.134Z,1.82
2022-12-08T04:26:51.178Z,1.83
2022-12-08T04:32:03.603Z,1.83
2022-12-08T04:37:11.628Z,1.84
2022-12-08T04:42:19.958Z,1.85
2022-12-08T04:47:35.843Z,1.85
2022-12-08T04:52:43.314Z,1.86
2022-12-08T04:57:51.323Z,1.89
2022-12-08T05:02:59.026Z,1.89
2022-12-08T05:08:24.556Z,1.88
2022-12-08T05:13:46.245Z,1.85
2022-12-08T05:18:54.304Z,1.83
2022-12-08T05:24:02.963Z,1.83
2022-12-08T05:29:10.226Z,1.81
2022-12-08T05:34:20.481Z,1.77
2022-12-08T05:39:31.111Z,1.74
2022-12-08T05:44:42.022Z,1.69
2022-12-08T05:49:49.832Z,1.64
2022-12-08T05:55:02.442Z,1.58
2022-12-08T06:00:26.696Z,1.50
2022-12-08T06:05:35.901Z,1.39
2022-12-08T06:11:01.388Z,1.28
2022-12-08T06:16:12.423Z,1.20
2022-12-08T06:21:23.159Z,1.15
2022-12-08T06:26:30.749Z,1.13
2022-12-08T06:31:38.386Z,1.13
2022-12-08T06:36:45.610Z,1.14
2022-12-08T06:42:10.234Z,1.13
2022-12-08T06:47:20.972Z,1.13
2022-12-08T06:52:30.915Z,1.13
2022-12-08T06:57:38.037Z,1.13
2022-12-08T07:02:46.136Z,1.12
2022-12-08T07:07:53.184Z,1.13
2022-12-08T07:13:00.281Z,1.12
2022-12-08T07:18:07.350Z,1.13
2022-12-08T07:23:14.518Z,1.14
2022-12-08T07:28:21.597Z,1.17
2022-12-08T07:33:33.441Z,1.20
2022-12-08T07:38:40.756Z,1.26
2022-12-08T07:43:47.928Z,1.33
2022-12-08T07:48:55.903Z,1.40
2022-12-08T07:54:03.068Z,1.47
2022-12-08T07:59:10.105Z,1.56
2022-12-08T08:04:17.283Z,1.66
2022-12-08T08:09:24.374Z,1.76
2022-12-08T08:14:32.023Z,1.85
2022-12-08T08:19:39.051Z,1.96
2022-12-08T08:24:46.066Z,2.08
2022-12-08T08:29:53.041Z,2.20
2022-12-08T08:35:00.028Z,2.37
2022-12-08T08:40:08.674Z,2.56
2022-12-08T08:45:15.527Z,2.75
2022-12-08T08:50:22.814Z,2.93
2022-12-08T08:55:29.959Z,3.06
2022-12-08T09:00:36.868Z,3.17
2022-12-08T09:05:44.041Z,3.30
2022-12-08T09:10:51.214Z,3.41
2022-12-08T09:15:58.789Z,3.51
2022-12-08T09:21:09.090Z,3.66
2022-12-08T09:26:16.145Z,3.79
2022-12-08T09:31:24.698Z,3.90
2022-12-08T09:36:31.964Z,3.98
2022-12-08T09:41:48.378Z,4.02
2022-12-08T09:46:59.912Z,4.10
2022-12-08T09:52:22.697Z,4.13
2022-12-08T09:57:32.104Z,4.18
2022-12-08T10:02:39.055Z,4.23
2022-12-08T10:07:50.231Z,4.33
2022-12-08T10:13:08.377Z,4.42
2022-12-08T10:18:19.311Z,4.51
2022-12-08T10:23:33.028Z,4.58
2022-12-08T10:28:44.702Z,4.61
2022-12-08T10:33:59.308Z,4.64
2022-12-08T10:39:21.864Z,4.69
2022-12-08T10:44:29.444Z,4.75
2022-12-08T10:49:39.023Z,4.87
2022-12-08T10:54:46.150Z,4.99
2022-12-08T10:59:55.683Z,5.10
2022-12-08T11:05:02.834Z,5.18
2022-12-08T11:10:20.940Z,5.15
2022-12-08T11:15:36.663Z,5.16
2022-12-08T11:20:44.248Z,5.20
2022-12-08T11:25:52.948Z,5.20
2022-12-08T11:31:05.004Z,5.19
2022-12-08T11:36:16.727Z,5.21
2022-12-08T11:41:27.488Z,5.29
2022-12-08T11:46:41.675Z,5.36
2022-12-08T11:51:54.138Z,5.39
2022-12-08T11:57:03.578Z,5.41
2022-12-08T12:02:16.104Z,5.44
2022-12-08T12:07:42.126Z,5.49
2022-12-08T12:13:01.643Z,5.58
2022-12-08T12:18:16.770Z,5.73
2022-12-08T12:23:31.541Z,5.99
2022-12-08T12:28:45.226Z,6.18
2022-12-08T12:33:55.247Z,6.23
2022-12-08T12:39:04.291Z,6.20
2022-12-08T12:44:26.831Z,6.14
2022-12-08T12:49:54.126Z,6.08
2022-12-08T12:55:26.040Z,5.98
2022-12-08T13:00:33.117Z,5.93
2022-12-08T13:05:51.866Z,5.87
2022-12-08T13:11:04.660Z,5.96
2022-12-08T13:16:22.876Z,5.94
2022-12-08T13:21:37.241Z,5.84
2022-12-08T13:26:49.289Z,5.68
2022-12-08T13:31:55.811Z,5.50
2022-12-08T13:37:19.995Z,5.34
2022-12-08T13:42:34.870Z,5.14
2022-12-08T13:48:14.161Z,5.02
2022-12-08T13:54:42.510Z,4.90
2022-12-08T13:58:46.893Z,4.82
2022-12-08T14:09:27.217Z,4.62
2022-12-08T14:15:01.859Z,4.48
2022-12-08T14:20:19.255Z,4.34
2022-12-08T14:25:27.356Z,4.22
2022-12-08T14:30:36.314Z,4.10
2022-12-08T14:35:55.323Z,3.98
2022-12-08T14:41:08.863Z,3.84
2022-12-08T14:46:24.453Z,3.69
2022-12-08T14:51:34.443Z,3.53
2022-12-08T14:56:44.641Z,3.39
2022-12-08T15:01:54.670Z,3.28
2022-12-08T15:07:05.952Z,3.20
2022-12-08T15:12:26.698Z,3.15
2022-12-08T15:17:42.082Z,3.11
2022-12-08T15:22:49.185Z,3.08
2022-12-08T15:27:56.644Z,3.01
2022-12-08T15:33:03.847Z,2.91
2022-12-08T15:38:20.129Z,2.81
2022-12-08T15:43:27.539Z,2.72
2022-12-08T15:48:34.549Z,2.67
2022-12-08T15:53:42.524Z,2.63
2022-12-08T15:58:54.784Z,2.63
2022-12-08T16:09:34.267Z,2.60
2022-12-08T16:20:15.106Z,2.53
2022-12-08T16:25:22.965Z,2.50
2022-12-08T16:30:30.383Z,2.50
2022-12-08T16:35:37.357Z,2.52
2022-12-08T16:41:04.616Z,2.54
2022-12-08T16:46:23.254Z,2.52
2022-12-08T16:51:30.206Z,2.45
2022-12-08T16:56:37.167Z,2.36
2022-12-08T17:01:44.095Z,2.22
2022-12-08T17:06:53.525Z,2.09
2022-12-08T17:12:04.055Z,2.08
2022-12-08T17:17:11.496Z,2.13
2022-12-08T17:22:21.456Z,2.19
2022-12-08T17:27:31.987Z,2.24
2022-12-08T17:32:45.759Z,2.23
2022-12-08T17:37:55.935Z,2.17
2022-12-08T17:43:06.224Z,2.06
2022-12-08T17:48:18.464Z,1.91
2022-12-08T17:53:37.511Z,1.75
2022-12-08T17:58:54.901Z,1.63
2022-12-08T18:04:12.575Z,1.56
2022-12-08T18:09:34.550Z,1.51
2022-12-08T18:14:56.832Z,1.46
2022-12-08T18:20:15.713Z,1.49
2022-12-08T18:25:33.299Z,1.54
2022-12-08T18:30:55.618Z,1.62
2022-12-08T18:36:11.683Z,1.69
2022-12-08T18:41:43.031Z,1.70
2022-12-08T18:46:58.169Z,1.72
2022-12-08T18:59:15.746Z,1.75
2022-12-08T19:04:38.432Z,1.77
2022-12-08T19:09:56.522Z,1.80
2022-12-08T19:15:12.493Z,1.81
2022-12-08T19:20:46.337Z,1.81
2022-12-08T19:27:02.915Z,1.82
2022-12-08T19:32:25.193Z,1.83
2022-12-08T19:38:04.370Z,1.83
2022-12-08T19:43:58.104Z,1.82
2022-12-08T19:49:19.158Z,1.81
2022-12-08T19:54:39.977Z,1.79
2022-12-08T19:59:56.563Z,1.79
2022-12-08T20:05:09.951Z,1.79
2022-12-08T20:10:30.109Z,1.80
2022-12-08T20:15:44.683Z,1.81
2022-12-08T20:20:59.199Z,1.84
2022-12-08T20:26:18.075Z,1.85
2022-12-08T20:31:35.402Z,1.84
2022-12-08T20:36:46.691Z,1.84
2022-12-08T20:41:56.731Z,1.84
2022-12-08T20:47:07.878Z,1.85
2022-12-08T20:52:16.632Z,1.87
2022-12-08T20:57:31.526Z,1.88
2022-12-08T21:02:49.729Z,1.88
2022-12-08T21:08:13.374Z,1.89
2022-12-08T21:13:31.465Z,1.90
2022-12-08T21:18:44.042Z,1.93
2022-12-08T21:23:57.063Z,1.95
2022-12-08T21:29:07.232Z,1.96
2022-12-08T21:34:15.890Z,1.98
2022-12-08T21:39:30.477Z,1.98
2022-12-08T21:44:42.042Z,1.99
2022-12-08T21:49:50.087Z,1.99
2022-12-08T21:55:02.028Z,2.01
2022-12-08T22:00:15.106Z,1.99
2022-12-08T22:05:26.677Z,1.99
2022-12-08T22:10:36.343Z,1.97
2022-12-08T22:15:44.285Z,1.96
2022-12-08T22:21:01.529Z,1.94
2022-12-08T22:26:13.271Z,1.94
2022-12-08T22:31:25.331Z,1.94
2022-12-08T22:36:34.632Z,1.94
2022-12-08T22:41:46.554Z,1.92
2022-12-08T22:47:01.681Z,1.90
2022-12-08T22:52:17.711Z,1.87
2022-12-08T22:57:30.017Z,1.87
2022-12-08T23:02:43.449Z,1.84
2022-12-08T23:07:53.457Z,1.82
2022-12-08T23:13:04.186Z,1.79
2022-12-08T23:18:17.507Z,1.77
2022-12-08T23:23:25.885Z,1.74
2022-12-08T23:29:42.344Z,1.72
2022-12-08T23:35:12.958Z,1.71
2022-12-08T23:40:24.571Z,1.69
2022-12-08T23:45:37.968Z,1.68
2022-12-08T23:50:47.598Z,1.68
2022-12-08T23:56:03.736Z,1.66
